createdAt,value
2022-12-19T00:00:42.651Z,-4.46
2022-12-19T00:03:11.390Z,-4.43
2022-12-19T00:05:40.638Z,-4.40
2022-12-19T00:08:17.570Z,-4.38
2022-12-19T00:10:55.524Z,-4.38
2022-12-19T00:13:25.750Z,-4.45
2022-12-19T00:15:54.284Z,-4.48
2022-12-19T00:18:22.991Z,-4.56
2022-12-19T00:21:00.102Z,-4.62
2022-12-19T00:23:31.112Z,-4.72
2022-12-19T00:26:09.340Z,-4.81
2022-12-19T00:28:38.050Z,-4.86
2022-12-19T00:31:07.115Z,-4.84
2022-12-19T00:33:36.135Z,-4.82
2022-12-19T00:36:11.047Z,-4.84
2022-12-19T00:38:40.685Z,-4.84
2022-12-19T00:41:14.308Z,-4.85
2022-12-19T00:43:44.100Z,-4.82
2022-12-19T00:46:14.830Z,-4.76
2022-12-19T00:48:43.763Z,-4.73
2022-12-19T00:51:14.566Z,-4.70
2022-12-19T00:53:44.992Z,-4.72
2022-12-19T00:56:15.550Z,-4.73
2022-12-19T00:58:47.167Z,-4.75
2022-12-19T01:01:18.547Z,-4.75
2022-12-19T01:04:18.801Z,-4.73
2022-12-19T01:06:36.797Z,-4.71
2022-12-19T01:09:07.071Z,-4.73
2022-12-19T01:11:54.124Z,-4.75
2022-12-19T01:14:23.532Z,-4.76
2022-12-19T01:16:52.640Z,-4.71
2022-12-19T01:19:21.736Z,-4.67
2022-12-19T01:21:50.428Z,-4.65
2022-12-19T01:24:20.339Z,-4.69
2022-12-19T01:26:51.474Z,-4.77
2022-12-19T01:29:20.068Z,-4.83
2022-12-19T01:31:49.619Z,-4.91
2022-12-19T01:34:18.368Z,-4.94
2022-12-19T01:36:46.887Z,-4.98
2022-12-19T01:39:15.534Z,-4.98
2022-12-19T01:41:44.133Z,-4.97
2022-12-19T01:44:12.815Z,-4.96
2022-12-19T01:46:43.717Z,-4.98
2022-12-19T01:49:18.004Z,-4.99
2022-12-19T01:51:54.025Z,-4.98
2022-12-19T01:54:25.582Z,-4.95
2022-12-19T01:56:57.485Z,-4.95
2022-12-19T01:59:29.595Z,-4.94
2022-12-19T02:02:05.053Z,-4.94
2022-12-19T02:04:35.064Z,-4.98
2022-12-19T02:07:09.378Z,-5.06
2022-12-19T02:09:45.605Z,-5.12
2022-12-19T02:12:14.780Z,-5.14
2022-12-19T02:14:43.697Z,-5.12
2022-12-19T02:17:19.992Z,-5.10
2022-12-19T02:20:36.764Z,-5.07
2022-12-19T02:23:28.068Z,-5.07
2022-12-19T02:26:26.720Z,-5.08
2022-12-19T02:29:21.724Z,-5.14
2022-12-19T02:31:58.470Z,-5.18
2022-12-19T02:34:39.945Z,-5.22
2022-12-19T02:37:18.716Z,-5.28
2022-12-19T02:39:54.910Z,-5.35
2022-12-19T02:42:28.800Z,-5.43
2022-12-19T02:45:03.318Z,-5.55
2022-12-19T02:47:34.058Z,-5.63
2022-12-19T02:50:03.845Z,-5.70
2022-12-19T02:52:47.323Z,-5.73
2022-12-19T02:55:21.656Z,-5.75
2022-12-19T02:58:09.466Z,-5.79
2022-12-19T03:00:45.424Z,-5.77
2022-12-19T03:03:21.595Z,-5.75
2022-12-19T03:06:01.543Z,-5.75
2022-12-19T03:08:39.756Z,-5.73
2022-12-19T03:11:12.740Z,-5.72
2022-12-19T03:13:47.270Z,-5.76
2022-12-19T03:16:15.929Z,-5.84
2022-12-19T03:18:45.568Z,-5.90
2022-12-19T03:21:20.349Z,-5.92
2022-12-19T03:23:50.489Z,-5.91
2022-12-19T03:26:21.569Z,-5.92
2022-12-19T03:28:53.823Z,-5.91
2022-12-19T03:31:24.942Z,-5.90
2022-12-19T03:33:58.446Z,-5.91
2022-12-19T03:36:32.297Z,-5.92
2022-12-19T03:39:04.263Z,-5.91
2022-12-19T03:41:53.133Z,-5.88
2022-12-19T03:44:25.374Z,-5.85
2022-12-19T03:46:59.128Z,-5.87
2022-12-19T03:49:28.495Z,-5.90
2022-12-19T03:52:05.595Z,-5.92
2022-12-19T03:54:40.210Z,-5.97
2022-12-19T03:57:14.942Z,-6.02
2022-12-19T03:59:46.301Z,-6.07
2022-12-19T04:02:17.122Z,-6.11
2022-12-19T04:04:51.460Z,-6.11
2022-12-19T04:07:22.289Z,-6.10
2022-12-19T04:09:53.010Z,-6.13
2022-12-19T04:12:26.034Z,-6.17
2022-12-19T04:14:54.794Z,-6.25
2022-12-19T04:17:31.068Z,-6.28
2022-12-19T04:20:03.392Z,-6.32
2022-12-19T04:22:35.818Z,-6.38
2022-12-19T04:25:08.867Z,-6.45
2022-12-19T04:27:41.189Z,-6.48
2022-12-19T04:30:15.595Z,-6.54
2022-12-19T04:32:45.934Z,-6.59
2022-12-19T04:35:15.089Z,-6.63
2022-12-19T04:37:44.084Z,-6.68
2022-12-19T04:40:14.275Z,-6.72
2022-12-19T04:42:42.760Z,-6.73
2022-12-19T04:45:13.668Z,-6.74
2022-12-19T04:47:45.013Z,-6.74
2022-12-19T04:50:13.708Z,-6.75
2022-12-19T04:52:43.018Z,-6.80
2022-12-19T04:55:11.808Z,-6.84
2022-12-19T04:57:40.782Z,-6.89
2022-12-19T05:00:12.241Z,-6.93
2022-12-19T05:02:40.928Z,-6.99
2022-12-19T05:05:11.482Z,-6.99
2022-12-19T05:07:40.500Z,-7.06
2022-12-19T05:10:09.836Z,-7.08
2022-12-19T05:12:38.340Z,-7.12
2022-12-19T05:15:09.477Z,-7.19
2022-12-19T05:17:38.054Z,-7.20
2022-12-19T05:20:09.989Z,-7.22
2022-12-19T05:22:39.446Z,-7.23
2022-12-19T05:25:09.730Z,-7.25
2022-12-19T05:27:38.350Z,-7.24
2022-12-19T05:30:09.417Z,-7.24
2022-12-19T05:32:37.982Z,-7.21
2022-12-19T05:35:08.346Z,-7.18
2022-12-19T05:37:36.894Z,-7.16
2022-12-19T05:40:08.099Z,-7.17
2022-12-19T05:42:36.719Z,-7.16
2022-12-19T05:45:08.047Z,-7.18
2022-12-19T05:47:38.027Z,-7.20
2022-12-19T05:50:09.113Z,-7.25
2022-12-19T05:52:37.920Z,-7.26
2022-12-19T05:55:08.886Z,-7.25
2022-12-19T05:57:37.813Z,-7.25
2022-12-19T06:00:09.195Z,-7.25
2022-12-19T06:02:41.173Z,-7.26
2022-12-19T06:05:10.568Z,-7.26
2022-12-19T06:07:39.197Z,-7.29
2022-12-19T06:10:08.957Z,-7.33
2022-12-19T06:12:37.551Z,-7.38
2022-12-19T06:15:08.261Z,-7.43
2022-12-19T06:17:36.801Z,-7.46
2022-12-19T06:20:07.616Z,-7.42
2022-12-19T06:22:36.189Z,-7.38
2022-12-19T06:25:06.395Z,-7.37
2022-12-19T06:27:35.100Z,-7.36
2022-12-19T06:30:04.637Z,-7.32
2022-12-19T06:32:37.739Z,-7.28
2022-12-19T06:35:08.802Z,-7.25
2022-12-19T06:37:39.549Z,-7.22
2022-12-19T06:40:32.230Z,-7.18
2022-12-19T06:43:02.764Z,-7.15
2022-12-19T06:45:32.702Z,-7.18
2022-12-19T06:48:01.146Z,-7.20
2022-12-19T06:50:29.637Z,-7.26
2022-12-19T06:52:58.323Z,-7.29
2022-12-19T06:55:27.645Z,-7.30
2022-12-19T06:57:56.578Z,-7.31
2022-12-19T07:00:25.411Z,-7.29
2022-12-19T07:02:58.549Z,-7.22
2022-12-19T07:05:29.243Z,-7.13
2022-12-19T07:07:57.785Z,-7.05
2022-12-19T07:10:26.404Z,-6.96
2022-12-19T07:12:55.200Z,-6.90
2022-12-19T07:15:24.292Z,-6.83
2022-12-19T07:17:56.380Z,-6.75
2022-12-19T07:20:25.364Z,-6.65
2022-12-19T07:22:54.481Z,-6.19
2022-12-19T07:25:22.978Z,-5.61
2022-12-19T07:27:52.950Z,-5.55
2022-12-19T07:30:22.363Z,-5.54
2022-12-19T07:32:50.837Z,-5.54
2022-12-19T07:35:22.460Z,-5.41
2022-12-19T07:37:51.001Z,-4.95
2022-12-19T07:40:19.830Z,-4.37
2022-12-19T07:42:48.587Z,-3.58
2022-12-19T07:45:17.631Z,-2.73
2022-12-19T07:47:47.469Z,-1.75
2022-12-19T07:50:16.175Z,-0.81
2022-12-19T07:52:45.470Z,0.00
2022-12-19T07:55:14.454Z,0.78
2022-12-19T07:57:43.338Z,1.47
2022-12-19T08:00:13.479Z,2.05
2022-12-19T08:02:42.391Z,2.59
2022-12-19T08:05:11.591Z,3.26
2022-12-19T08:07:40.792Z,3.88
2022-12-19T08:10:11.929Z,4.22
2022-12-19T08:12:40.626Z,4.63
2022-12-19T08:15:10.946Z,4.99
2022-12-19T08:17:40.108Z,5.38
2022-12-19T08:20:11.525Z,5.56
2022-12-19T08:22:40.414Z,5.84
2022-12-19T08:25:10.062Z,6.12
2022-12-19T08:27:40.604Z,6.31
2022-12-19T08:30:13.361Z,6.66
2022-12-19T08:32:42.035Z,6.90
2022-12-19T08:35:11.242Z,7.08
2022-12-19T08:37:40.445Z,7.42
2022-12-19T08:40:11.585Z,7.80
2022-12-19T08:42:40.207Z,8.17
2022-12-19T08:45:10.296Z,8.33
2022-12-19T08:47:38.828Z,8.58
2022-12-19T08:50:09.217Z,8.95
2022-12-19T08:52:37.670Z,9.14
2022-12-19T08:55:09.448Z,9.02
2022-12-19T08:57:41.437Z,8.89
2022-12-19T09:00:12.777Z,8.77
2022-12-19T09:02:42.600Z,8.53
2022-12-19T09:06:01.493Z,8.25
2022-12-19T09:08:00.464Z,8.08
2022-12-19T09:10:29.840Z,7.82
2022-12-19T09:12:58.420Z,7.50
2022-12-19T09:15:26.992Z,7.47
2022-12-19T09:17:55.557Z,7.49
2022-12-19T09:20:24.176Z,7.56
2022-12-19T09:22:53.351Z,7.46
2022-12-19T09:25:22.091Z,6.91
2022-12-19T09:28:25.937Z,6.05
2022-12-19T09:30:39.310Z,5.03
2022-12-19T09:33:08.017Z,4.19
2022-12-19T09:35:37.761Z,3.45
2022-12-19T09:38:06.625Z,2.95
2022-12-19T09:40:57.670Z,2.55
2022-12-19T09:43:41.436Z,2.18
2022-12-19T09:46:17.367Z,2.03
2022-12-19T09:48:54.392Z,1.92
2022-12-19T09:51:34.147Z,1.89
2022-12-19T09:54:12.174Z,1.88
2022-12-19T09:56:45.510Z,2.01
2022-12-19T09:59:24.727Z,2.19
2022-12-19T10:02:18.465Z,2.28
2022-12-19T10:04:51.714Z,2.41
2022-12-19T10:08:01.395Z,2.62
2022-12-19T10:12:34.734Z,2.74
2022-12-19T10:13:25.677Z,2.78
2022-12-19T10:16:04.271Z,2.86
2022-12-19T10:18:51.152Z,2.91
2022-12-19T10:22:15.875Z,2.80
2022-12-19T10:24:52.002Z,2.71
2022-12-19T10:27:59.203Z,2.73
2022-12-19T10:30:33.070Z,2.58
2022-12-19T10:33:14.773Z,2.39
2022-12-19T10:35:55.176Z,2.20
2022-12-19T10:38:32.173Z,1.94
2022-12-19T10:41:15.254Z,1.77
2022-12-19T10:43:52.006Z,1.64
2022-12-19T10:46:30.694Z,1.50
2022-12-19T10:48:59.384Z,1.33
2022-12-19T10:51:31.727Z,1.16
2022-12-19T10:54:01.392Z,0.99
2022-12-19T10:56:37.535Z,0.86
2022-12-19T10:59:17.495Z,0.78
2022-12-19T11:02:00.402Z,0.71
2022-12-19T11:04:33.546Z,0.59
2022-12-19T11:07:19.982Z,0.35
2022-12-19T11:10:02.973Z,0.22
2022-12-19T11:17:12.459Z,0.04
2022-12-19T11:19:45.189Z,-0.21
2022-12-19T11:26:56.031Z,-0.53
2022-12-19T11:28:19.850Z,-0.88
2022-12-19T11:29:31.406Z,-1.16
2022-12-19T11:30:47.110Z,-1.30
2022-12-19T11:34:22.975Z,-1.52
2022-12-19T11:37:18.900Z,-1.58
2022-12-19T11:40:17.362Z,-1.58
2022-12-19T11:46:34.715Z,-1.91
2022-12-19T11:49:29.923Z,-2.06
2022-12-19T11:55:50.964Z,-2.39
2022-12-19T11:58:40.128Z,-2.51
2022-12-19T12:01:58.935Z,-2.58
2022-12-19T12:05:17.185Z,-2.66
2022-12-19T12:12:21.895Z,-2.82
2022-12-19T12:18:04.896Z,-2.89
2022-12-19T12:23:07.574Z,-2.90
2022-12-19T12:27:34.815Z,-2.92
2022-12-19T12:31:06.910Z,-2.93
2022-12-19T12:31:17.154Z,-2.98
2022-12-19T12:31:31.378Z,-3.00
2022-12-19T12:31:49.685Z,-3.04
2022-12-19T12:35:46.912Z,-3.07
2022-12-19T12:38:43.937Z,-3.08
2022-12-19T12:41:45.065Z,-3.07
2022-12-19T12:44:14.975Z,-3.04
2022-12-19T12:46:47.833Z,-3.03
2022-12-19T12:49:33.379Z,-3.07
2022-12-19T12:52:04.089Z,-3.05
2022-12-19T12:54:36.337Z,-3.06
2022-12-19T12:57:05.387Z,-3.11
2022-12-19T12:59:34.235Z,-3.18
2022-12-19T13:02:15.319Z,-3.23
2022-12-19T13:04:56.351Z,-3.24
2022-12-19T13:07:36.127Z,-3.25
2022-12-19T13:10:18.669Z,-3.28
2022-12-19T13:13:02.264Z,-3.33
2022-12-19T13:15:40.819Z,-3.33
2022-12-19T13:18:33.874Z,-3.31
2022-12-19T13:21:06.242Z,-3.36
2022-12-19T13:23:47.384Z,-3.45
2022-12-19T13:26:44.847Z,-3.55
2022-12-19T13:29:53.180Z,-3.64
2022-12-19T13:32:23.232Z,-3.71
2022-12-19T13:35:31.502Z,-3.77
2022-12-19T13:39:54.405Z,-3.83
2022-12-19T13:40:56.662Z,-3.88
2022-12-19T13:43:47.269Z,-3.94
2022-12-19T13:46:32.788Z,-3.97
2022-12-19T13:49:06.077Z,-3.99
2022-12-19T13:51:45.483Z,-4.03
2022-12-19T13:54:26.438Z,-4.08
2022-12-19T13:56:56.265Z,-4.10
2022-12-19T13:59:28.169Z,-4.12
2022-12-19T14:02:06.560Z,-4.14
2022-12-19T14:04:35.745Z,-4.17
2022-12-19T14:07:06.798Z,-4.16
2022-12-19T14:11:26.292Z,-4.17
2022-12-19T14:13:57.508Z,-4.20
2022-12-19T14:15:40.580Z,-4.25
2022-12-19T14:18:44.583Z,-4.26
2022-12-19T14:22:03.777Z,-4.25
2022-12-19T14:24:15.944Z,-4.28
2022-12-19T14:28:17.445Z,-4.34
2022-12-19T14:30:08.549Z,-4.39
2022-12-19T14:33:46.717Z,-4.44
2022-12-19T14:36:05.242Z,-4.51
2022-12-19T14:39:19.764Z,-4.53
2022-12-19T14:41:08.397Z,-4.55
2022-12-19T14:43:59.516Z,-4.62
2022-12-19T14:51:09.061Z,-4.68
2022-12-19T14:54:13.168Z,-4.70
2022-12-19T14:54:22.085Z,-4.69
2022-12-19T14:56:12.354Z,-4.71
2022-12-19T14:58:53.054Z,-4.73
2022-12-19T15:01:26.473Z,-4.73
2022-12-19T15:04:49.127Z,-4.72
2022-12-19T15:07:07.542Z,-4.74
2022-12-19T15:11:00.587Z,-4.80
2022-12-19T15:14:48.131Z,-4.87
2022-12-19T15:15:58.869Z,-4.87
2022-12-19T15:18:38.026Z,-4.84
2022-12-19T15:21:10.488Z,-4.85
2022-12-19T15:23:39.098Z,-4.83
2022-12-19T15:26:13.169Z,-4.83
2022-12-19T15:28:43.952Z,-4.86
2022-12-19T15:31:24.634Z,-4.87
2022-12-19T15:34:32.840Z,-4.86
2022-12-19T15:36:42.444Z,-4.83
2022-12-19T15:39:11.184Z,-4.83
2022-12-19T15:41:39.861Z,-4.82
2022-12-19T15:44:14.302Z,-4.83
2022-12-19T15:46:48.625Z,-4.87
2022-12-19T15:49:19.661Z,-4.87
2022-12-19T15:51:49.250Z,-4.85
2022-12-19T15:57:15.302Z,-4.76
2022-12-19T15:59:45.505Z,-4.73
2022-12-19T16:02:21.728Z,-4.70
2022-12-19T16:04:52.874Z,-4.68
2022-12-19T16:07:25.201Z,-4.68
2022-12-19T16:09:54.972Z,-4.70
2022-12-19T16:12:29.186Z,-4.70
2022-12-19T16:15:00.766Z,-4.66
2022-12-19T16:17:32.340Z,-4.62
2022-12-19T16:20:01.224Z,-4.58
2022-12-19T16:22:30.190Z,-4.52
2022-12-19T16:24:59.179Z,-4.48
2022-12-19T16:27:30.977Z,-4.46
2022-12-19T16:30:16.615Z,-4.42
2022-12-19T16:32:48.060Z,-4.46
2022-12-19T16:35:28.988Z,-4.47
2022-12-19T16:38:08.349Z,-4.43
2022-12-19T16:40:37.332Z,-4.43
2022-12-19T16:43:12.977Z,-4.43
2022-12-19T16:45:42.378Z,-4.44
2022-12-19T16:48:19.879Z,-4.42
2022-12-19T16:50:49.652Z,-4.42
2022-12-19T16:53:19.532Z,-4.45
2022-12-19T16:55:50.047Z,-4.46
2022-12-19T16:58:21.481Z,-4.43
2022-12-19T17:00:54.336Z,-4.44
2022-12-19T17:03:29.765Z,-4.42
2022-12-19T17:05:57.686Z,-4.42
2022-12-19T17:12:31.481Z,-4.42
2022-12-19T17:15:54.514Z,-4.40
2022-12-19T17:18:31.572Z,-4.40
2022-12-19T17:20:59.549Z,-4.38
2022-12-19T17:23:31.795Z,-4.32
2022-12-19T17:26:01.992Z,-4.28
2022-12-19T17:28:31.025Z,-4.25
2022-12-19T17:31:04.603Z,-4.24
2022-12-19T17:33:36.918Z,-4.23
2022-12-19T17:36:11.651Z,-4.23
2022-12-19T17:38:41.694Z,-4.23
2022-12-19T17:41:15.469Z,-4.23
2022-12-19T17:43:45.210Z,-4.23
2022-12-19T17:46:20.202Z,-4.21
2022-12-19T17:48:51.886Z,-4.20
2022-12-19T17:51:22.741Z,-4.16
2022-12-19T17:53:51.843Z,-4.14
2022-12-19T17:56:21.406Z,-4.09
2022-12-19T17:58:50.313Z,-4.03
2022-12-19T18:01:21.125Z,-3.97
2022-12-19T18:03:52.519Z,-3.96
2022-12-19T18:06:22.101Z,-3.90
2022-12-19T18:08:50.882Z,-3.87
2022-12-19T18:11:21.483Z,-3.86
2022-12-19T18:13:50.722Z,-3.80
2022-12-19T18:16:22.583Z,-3.75
2022-12-19T18:18:51.673Z,-3.75
2022-12-19T18:21:25.931Z,-3.78
2022-12-19T18:23:54.643Z,-3.79
2022-12-19T18:26:23.241Z,-3.82
2022-12-19T18:28:51.960Z,-3.82
2022-12-19T18:31:25.273Z,-3.80
2022-12-19T18:33:59.564Z,-3.77
2022-12-19T18:36:37.018Z,-3.75
2022-12-19T18:39:20.620Z,-3.71
2022-12-19T18:41:50.208Z,-3.67
2022-12-19T18:44:19.261Z,-3.67
2022-12-19T18:46:50.564Z,-3.65
2022-12-19T18:49:19.383Z,-3.64
2022-12-19T18:51:48.036Z,-3.66
2022-12-19T18:54:18.558Z,-3.69
2022-12-19T18:56:48.223Z,-3.69
2022-12-19T18:59:16.887Z,-3.68
2022-12-19T19:01:47.552Z,-3.65
2022-12-19T19:04:17.939Z,-3.63
2022-12-19T19:06:52.223Z,-3.61
2022-12-19T19:09:24.118Z,-3.57
2022-12-19T19:12:31.337Z,-3.52
2022-12-19T19:15:02.451Z,-3.49
2022-12-19T19:17:34.860Z,-3.47
2022-12-19T19:20:11.725Z,-3.43
2022-12-19T19:22:50.316Z,-3.44
2022-12-19T19:25:20.297Z,-3.40
2022-12-19T19:27:51.778Z,-3.40
2022-12-19T19:30:43.861Z,-3.36
2022-12-19T19:33:21.324Z,-3.29
2022-12-19T19:36:11.704Z,-3.21
2022-12-19T19:38:56.045Z,-3.13
2022-12-19T19:41:32.390Z,-3.04
2022-12-19T19:44:18.805Z,-2.99
2022-12-19T19:46:49.548Z,-2.98
2022-12-19T19:49:23.344Z,-2.97
2022-12-19T19:51:58.510Z,-2.94
2022-12-19T19:54:36.672Z,-2.91
2022-12-19T19:57:05.323Z,-2.86
2022-12-19T19:59:35.745Z,-2.82
2022-12-19T20:02:08.336Z,-2.78
2022-12-19T20:04:41.740Z,-2.77
2022-12-19T20:07:16.854Z,-2.73
2022-12-19T20:09:50.195Z,-2.72
2022-12-19T20:12:24.296Z,-2.65
2022-12-19T20:14:52.990Z,-2.61
2022-12-19T20:17:23.684Z,-2.59
2022-12-19T20:20:03.204Z,-2.55
2022-12-19T20:22:41.439Z,-2.54
2022-12-19T20:25:14.547Z,-2.54
2022-12-19T20:27:51.819Z,-2.52
2022-12-19T20:30:20.837Z,-2.49
2022-12-19T20:32:49.535Z,-2.47
2022-12-19T20:35:18.342Z,-2.49
2022-12-19T20:37:47.292Z,-2.49
2022-12-19T20:40:16.265Z,-2.48
2022-12-19T20:42:45.029Z,-2.45
2022-12-19T20:45:21.350Z,-2.43
2022-12-19T20:47:51.034Z,-2.44
2022-12-19T20:50:20.754Z,-2.40
2022-12-19T20:52:49.530Z,-2.35
2022-12-19T20:55:18.219Z,-2.32
2022-12-19T20:57:46.950Z,-2.28
2022-12-19T21:00:18.247Z,-2.24
2022-12-19T21:03:25.658Z,-2.24
2022-12-19T21:05:35.366Z,-2.25
2022-12-19T21:08:03.968Z,-2.24
2022-12-19T21:10:32.810Z,-2.22
2022-12-19T21:13:01.392Z,-2.20
2022-12-19T21:15:31.313Z,-2.19
2022-12-19T21:18:00.860Z,-2.19
2022-12-19T21:20:34.281Z,-2.21
2022-12-19T21:23:03.590Z,-2.21
2022-12-19T21:25:32.182Z,-2.18
2022-12-19T21:28:00.671Z,-2.15
2022-12-19T21:30:29.203Z,-2.10
2022-12-19T21:32:57.731Z,-2.04
2022-12-19T21:35:26.973Z,-2.01
2022-12-19T21:37:55.893Z,-2.02
2022-12-19T21:40:24.464Z,-2.03
2022-12-19T21:42:53.092Z,-2.03
2022-12-19T21:45:21.606Z,-2.03
2022-12-19T21:47:50.162Z,-2.02
2022-12-19T21:50:19.923Z,-2.04
2022-12-19T21:52:54.249Z,-2.08
2022-12-19T21:55:24.395Z,-2.07
2022-12-19T21:57:53.059Z,-2.05
2022-12-19T22:00:22.182Z,-2.03
2022-12-19T22:03:12.605Z,-2.01
2022-12-19T22:05:39.713Z,-2.02
2022-12-19T22:08:10.586Z,-2.01
2022-12-19T22:10:39.719Z,-2.00
2022-12-19T22:13:08.290Z,-1.97
2022-12-19T22:15:36.990Z,-1.96
2022-12-19T22:18:06.163Z,-1.92
2022-12-19T22:20:34.814Z,-1.88
2022-12-19T22:23:05.904Z,-1.85
2022-12-19T22:25:38.978Z,-1.85
2022-12-19T22:28:07.559Z,-1.82
2022-12-19T22:30:36.562Z,-1.78
2022-12-19T22:33:05.428Z,-1.77
2022-12-19T22:35:34.928Z,-1.74
2022-12-19T22:38:03.541Z,-1.71
2022-12-19T22:40:32.543Z,-1.67
2022-12-19T22:43:01.167Z,-1.60
2022-12-19T22:45:31.597Z,-1.57
2022-12-19T22:48:00.266Z,-1.55
2022-12-19T22:50:28.988Z,-1.54
2022-12-19T22:52:57.721Z,-1.48
2022-12-19T22:55:26.864Z,-1.44
2022-12-19T22:57:55.626Z,-1.40
2022-12-19T23:00:24.716Z,-1.37
2022-12-19T23:02:53.257Z,-1.35
2022-12-19T23:05:22.396Z,-1.33
2022-12-19T23:07:51.075Z,-1.32
2022-12-19T23:10:19.965Z,-1.32
2022-12-19T23:12:49.056Z,-1.28
2022-12-19T23:15:18.029Z,-1.24
2022-12-19T23:17:46.546Z,-1.18
2022-12-19T23:20:15.413Z,-1.13
2022-12-19T23:22:44.123Z,-1.12
2022-12-19T23:25:13.312Z,-1.07
2022-12-19T23:27:42.102Z,-1.03
2022-12-19T23:30:12.057Z,-1.00
2022-12-19T23:32:45.453Z,-0.93
2022-12-19T23:35:17.713Z,-0.90
2022-12-19T23:37:46.479Z,-0.91
2022-12-19T23:40:15.371Z,-0.88
2022-12-19T23:42:44.056Z,-0.82
2022-12-19T23:45:13.251Z,-0.79
2022-12-19T23:47:41.807Z,-0.76
2022-12-19T23:50:11.854Z,-0.71
2022-12-19T23:52:41.315Z,-0.65
2022-12-19T23:55:11.304Z,-0.58
2022-12-19T23:57:40.190Z,-0.51
